Terminal Aerodrome Forecast
Issued by NWS

Home | Current Version | Previous Version | Graphics & Text | Print | Product List | Glossary On
Versions: 1 2 3 4 5 6 7 8 9 10 11 12 13 14 15 16 17 18
000
FTUS43 KLSX 192300
TAFSUS
TAF
KSUS 192340Z 2000/2024 04004KT P6SM OVC250
     FM201000 05008KT P6SM OVC090
     FM201200 06008KT 5SM -RA BR OVC050
     FM201800 04006KT 3SM -DZ BR OVC008=

USA.gov is the U.S. government's official web portal to all federal, state and local government web resources and services.